Adjuster:

Seasonal Box Office


INDEX BY QUARTER | INDEX BY YEAR | SEASON-TO-DATE

2016 - 2015 - 2014 - 2013 - 2012 - 2011 - 2010 - 2009 - 2008 - 2007 - 2006 - 2005 - 2004 - 2003 - 2002 - 2001 - 2000

Season-to-Date: Summer
(The first Friday in May through Labor Day Weekend)
Data shown for May 6–Jul. 24


#1–100 - #101–200 - #201–277
RowRankMovie Title (click to view)Studio
Gross / TheatersTotal Gross / % of TotalOpen
128The IslandDW$12,409,0703,122$35,818,91334.6%7/22/05
230Bad News BearsPar.$11,382,4723,183$32,868,34934.6%7/22/05
335Hustle and FlowParC$8,017,8081,013$22,202,80936.1%7/22/05
436The Devil's RejectsLions$7,067,3351,757$17,044,98141.5%7/22/05
5123ViruddhUTV$110,36037$327,61533.7%7/22/05
6130Last DaysPicH$86,55612$463,08018.7%7/22/05
7193NovemberSPC$21,8138$192,18611.3%7/22/05
82109 SongsTar.$13,4571$66,85320.1%7/22/05
9223The EdukatorsIFC$10,0752$175,4935.7%7/22/05
10258This Divided StateMino.$1,6531$4,25538.8%7/22/05
11267MonumentalFRun$8421$1,43058.9%7/22/05
12263Making GraceFRun$1,2051$1,49680.5%7/20/05
138Charlie and the Chocolate FactoryWB$114,058,8923,790$206,459,07655.2%7/15/05
1410Wedding CrashersNL$80,366,5042,925$209,255,92138.4%7/15/05
1581Happy EndingsLions$544,23461$1,315,70141.4%7/15/05
16180The WarriorMira.$27,6904$50,25755.1%7/15/05
17221First MorningIllm.$10,4431$87,26412.0%7/15/05
18227Memories of MurderPalm$8,9461$15,35758.3%7/15/05
19229The ReceptionStrand$8,5351$18,38946.4%7/15/05
20186On the OutsFader$25,4601$49,94051.0%7/13/05
21215Searching for the Wrong-Eyed JesusShad.$12,0172$79,91615.0%7/13/05
22261Return to the Land of WondersArab$1,3381$1,338100.0%7/13/05
237Fantastic Four (2005)Fox$122,931,7803,619$154,696,08079.5%7/8/05
2423Dark WaterBV$23,007,3432,657$25,473,35290.3%7/8/05
2595MurderballThink$263,91826$1,531,15417.2%7/8/05
26114SarabandSPC$153,17812$645,63423.7%7/8/05
27117CronicasPalm$138,86813$300,32246.2%7/8/05
28120The Beautiful CountrySPC$131,09920$442,81329.6%7/8/05
29271Steve + SkyLife$6241$624100.0%7/8/05
3026ReboundFox$15,619,9532,464$16,809,01492.9%7/1/05
3184The Beat That My Heart SkippedWells$494,72833$1,023,42448.3%7/1/05
32164UndeadLions$41,19613$41,196100.0%7/1/05
33195The WorldZeit.$19,6551$64,12330.7%7/1/05
34234Twist of FaithAL$7,2722$8,12989.5%7/1/05
352War of the WorldsPar.$208,421,6433,910$234,280,35489.0%6/29/05
36230A Decent FactoryIcar.$7,9251$7,925100.0%6/29/05
3713BewitchedSony$59,613,3083,188$63,313,15994.2%6/24/05
3824George A. Romero's Land of the DeadUni.$20,262,1352,253$20,700,08297.9%6/24/05
3933March of the PenguinsWIP$9,306,689695$77,437,22312.0%6/24/05
4047RizeLions$3,336,391352$3,336,391100.0%6/24/05
4159PaheliEros$1,409,49968$1,409,499100.0%6/24/05
42100YesSPC$228,08126$396,76057.5%6/24/05
43128Lila SaysIDP$90,8726$121,36574.9%6/24/05
44173Elevator to the Gallows (Re-issue)Rialto$32,7111$263,40412.4%6/24/05
45179Tropical MaladyStrand$28,1922$46,75060.3%6/24/05
46199The Last MogulThink$16,4692$16,469100.0%6/24/05
47225Drivers WantedPill.$9,8001$25,18938.9%6/24/05
48239Tony TakitaniStrand$5,5041$129,7834.2%6/24/05
4911Herbie: Fully LoadedBV$60,327,5403,521$66,023,81691.4%6/22/05
5025The Perfect ManUni.$15,720,8552,090$16,535,00595.1%6/17/05
5156Me and You and Everyone We KnowIFC$1,924,460136$3,885,13449.5%6/17/05
5266My Summer of LoveFocus$924,72463$1,000,91592.4%6/17/05
5368HeightsSPC$893,91866$1,160,81777.0%6/17/05
54141The Talent Given UsVita.$65,8273$65,827100.0%6/17/05
55189Edvard Munch (Re-issue)Shad.$22,7052$43,53952.1%6/17/05
56212The Great WaterPict.$13,3452$17,25777.3%6/17/05
573Batman BeginsWB$191,105,1943,858$205,343,77493.1%6/15/05
585Mr. & Mrs. SmithFox$174,644,3453,451$186,336,27993.7%6/10/05
5917The Adventures of Sharkboy and Lavagirl in 3DDim.$38,075,9142,655$39,177,68497.2%6/10/05
6027The HoneymoonersPar.$12,724,3121,912$12,843,84999.1%6/10/05
6144Howl's Moving CastleBV$4,338,567202$4,711,09692.1%6/10/05
6245High TensionLions$3,681,0661,323$3,681,066100.0%6/10/05
6371ParineetaUTV$802,75850$802,758100.0%6/10/05
641245x2Think$107,7515$128,75283.7%6/10/05
65133The Keeper: The Legend of Omar KhayyamArv.$80,3863$225,86335.6%6/10/05
66157The Bridge of San Luis ReyFL$49,9816$49,981100.0%6/10/05
67167PureIndic.$38,4133$102,47137.5%6/10/05
68209Wild SideWells$13,6872$15,35589.1%6/10/05
69222Slutty SummerEmbr.$10,0961$21,51546.9%6/10/05
70242McLibelLibre$4,3373$4,337100.0%6/10/05
7112Cinderella ManUni.$59,884,1602,820$61,649,91197.1%6/3/05
7231Lords of DogtownSony$11,273,5171,865$11,273,517100.0%6/3/05
7378Apres VousParC$644,99142$830,29277.7%6/3/05
74110Caterina in the Big CityEmp.$188,39510$296,46463.5%6/3/05
75131Deep BlueMira.$83,8335$132,26163.4%6/3/05
76143Rock SchoolPicH$64,31032$64,310100.0%6/3/05
77214Milwaukee, MinnesotaTar.$12,0223$17,52868.6%6/3/05
7818The Sisterhood of the Traveling PantsWB$37,848,9112,583$39,053,06196.9%6/1/05
79187Or (My Treasure)Kino$24,7692$29,19484.8%6/1/05
804MadagascarDW$186,730,2364,142$193,595,52196.5%5/27/05
816The Longest YardPar.$155,363,4693,654$158,119,46098.3%5/27/05
8263Saving FaceSPC$1,039,19156$1,187,26687.5%5/27/05
8365Bunty Aur BabliYash$942,75651$942,756100.0%5/27/05
84154The Ninth DayKino$53,5934$72,88873.5%5/27/05
85181The Two of UsRialto$27,4021$56,55848.4%5/27/05
86197A League of Ordinary GentlemenMagn.$17,5404$18,80793.3%5/27/05
87200GenesisThink$16,4131$16,413100.0%5/27/05
88202SequinsNYer$15,5312$26,04259.6%5/27/05
89203Bomb the SystemPalm$15,5202$15,520100.0%5/27/05
90270Spooky House (Re-issue)Ent.H$6374$637100.0%5/27/05
9197Dominion: Prequel to the ExorcistWB$251,495110$251,495100.0%5/20/05
92184Sex, Politics & CocktailsReg.$26,0872$26,087100.0%5/20/05
93250Stolen ChildhoodsBal.$2,9961$2,996100.0%5/20/05
941Star Wars: Episode III - Revenge of the SithFox$375,876,6483,663$380,270,57798.8%5/19/05
959Monster-in-LawNL$81,962,4643,424$82,931,30198.8%5/13/05
9614Kicking and ScreamingUni.$52,375,5303,470$52,842,72499.1%5/13/05
9722UnleashedRog.$24,537,6211,962$24,537,621100.0%5/13/05
9838Mad Hot BallroomParC$5,911,288202$8,117,96172.8%5/13/05
9941MindhuntersDim.$4,480,7441,040$4,480,744100.0%5/13/05
10052Layer CakeSPC$2,312,497200$2,339,95798.8%5/13/05
Summary of 277 Movies on Chart:
Totals:$2,492,132,511----
Averages:$8,996,868----
#1–100 - #101–200 - #201–277



2016 - 2015 - 2014 - 2013 - 2012 - 2011 - 2010 - 2009 - 2008 - 2007 - 2006 - 2005 - 2004 - 2003 - 2002 - 2001 - 2000

Season-to-Date: Summer
(The first Friday in May through Labor Day Weekend)
Data shown for May 6–Jul. 24


Note: Quarter-to-Date data is displayed for CALENDAR GROSSES only, i.e., all movies playing during the above time period and their grosses (or estimated grosses). Click here for a full explanation of the various box office sections.